sensor_id;sensor_type;location;lat;lon;timestamp;P1;durP1;ratioP1;P2;durP2;ratioP2
11439;SDS011;5776;51.814;4.510;2023-07-24T00:01:01;3.65;;;2.03;;
11439;SDS011;5776;51.814;4.510;2023-07-24T00:03:27;3.00;;;1.77;;
11439;SDS011;5776;51.814;4.510;2023-07-24T00:05:53;2.88;;;1.63;;
11439;SDS011;5776;51.814;4.510;2023-07-24T00:08:25;2.97;;;1.92;;
11439;SDS011;5776;51.814;4.510;2023-07-24T00:10:50;2.88;;;1.80;;
11439;SDS011;5776;51.814;4.510;2023-07-24T00:13:16;7.65;;;2.05;;
11439;SDS011;5776;51.814;4.510;2023-07-24T00:15:44;2.28;;;1.70;;
11439;SDS011;5776;51.814;4.510;2023-07-24T00:18:10;3.35;;;1.60;;
11439;SDS011;5776;51.814;4.510;2023-07-24T00:20:39;2.72;;;1.67;;
11439;SDS011;5776;51.814;4.510;2023-07-24T00:23:05;3.45;;;1.88;;
11439;SDS011;5776;51.814;4.510;2023-07-24T00:25:31;2.03;;;1.30;;
11439;SDS011;5776;51.814;4.510;2023-07-24T00:27:58;2.63;;;1.73;;
11439;SDS011;5776;51.814;4.510;2023-07-24T00:30:24;2.38;;;1.40;;
11439;SDS011;5776;51.814;4.510;2023-07-24T00:32:50;3.80;;;2.10;;
11439;SDS011;5776;51.814;4.510;2023-07-24T00:35:18;4.28;;;1.58;;
11439;SDS011;5776;51.814;4.510;2023-07-24T00:37:45;2.10;;;1.58;;
11439;SDS011;5776;51.814;4.510;2023-07-24T00:40:13;2.80;;;1.90;;
11439;SDS011;5776;51.814;4.510;2023-07-24T00:42:39;2.67;;;1.63;;
11439;SDS011;5776;51.814;4.510;2023-07-24T00:45:05;2.10;;;1.42;;
11439;SDS011;5776;51.814;4.510;2023-07-24T00:47:32;2.33;;;1.55;;
11439;SDS011;5776;51.814;4.510;2023-07-24T00:49:58;2.03;;;1.40;;
11439;SDS011;5776;51.814;4.510;2023-07-24T00:52:25;4.10;;;1.80;;
11439;SDS011;5776;51.814;4.510;2023-07-24T00:54:54;2.45;;;1.80;;
11439;SDS011;5776;51.814;4.510;2023-07-24T00:57:20;2.40;;;1.60;;
11439;SDS011;5776;51.814;4.510;2023-07-24T00:59:47;3.63;;;1.52;;
11439;SDS011;5776;51.814;4.510;2023-07-24T01:02:13;3.90;;;1.83;;
11439;SDS011;5776;51.814;4.510;2023-07-24T01:04:39;2.83;;;1.80;;
11439;SDS011;5776;51.814;4.510;2023-07-24T01:07:05;2.38;;;1.50;;
11439;SDS011;5776;51.814;4.510;2023-07-24T01:09:33;2.10;;;1.52;;
11439;SDS011;5776;51.814;4.510;2023-07-24T01:14:46;2.78;;;1.55;;
11439;SDS011;5776;51.814;4.510;2023-07-24T01:17:16;2.60;;;1.63;;
11439;SDS011;5776;51.814;4.510;2023-07-24T01:19:49;3.38;;;1.80;;
11439;SDS011;5776;51.814;4.510;2023-07-24T01:25:14;6.40;;;1.90;;
11439;SDS011;5776;51.814;4.510;2023-07-24T01:28:06;2.20;;;1.63;;
11439;SDS011;5776;51.814;4.510;2023-07-24T01:30:34;2.90;;;1.70;;
11439;SDS011;5776;51.814;4.510;2023-07-24T01:33:01;3.60;;;2.03;;
11439;SDS011;5776;51.814;4.510;2023-07-24T01:35:28;4.55;;;2.08;;
11439;SDS011;5776;51.814;4.510;2023-07-24T01:37:55;3.25;;;2.30;;
11439;SDS011;5776;51.814;4.510;2023-07-24T01:40:22;6.82;;;2.40;;
11439;SDS011;5776;51.814;4.510;2023-07-24T01:42:49;4.47;;;2.63;;
11439;SDS011;5776;51.814;4.510;2023-07-24T01:45:17;3.25;;;2.40;;
11439;SDS011;5776;51.814;4.510;2023-07-24T01:47:43;3.83;;;2.40;;
11439;SDS011;5776;51.814;4.510;2023-07-24T01:50:09;3.65;;;2.35;;
11439;SDS011;5776;51.814;4.510;2023-07-24T01:52:38;4.82;;;2.50;;
11439;SDS011;5776;51.814;4.510;2023-07-24T01:55:04;5.00;;;2.72;;
11439;SDS011;5776;51.814;4.510;2023-07-24T01:57:33;4.82;;;2.38;;
11439;SDS011;5776;51.814;4.510;2023-07-24T01:59:59;3.75;;;2.58;;
11439;SDS011;5776;51.814;4.510;2023-07-24T02:02:25;4.95;;;2.30;;
11439;SDS011;5776;51.814;4.510;2023-07-24T02:04:51;3.00;;;2.40;;
11439;SDS011;5776;51.814;4.510;2023-07-24T02:07:20;4.30;;;2.40;;
11439;SDS011;5776;51.814;4.510;2023-07-24T02:09:46;4.80;;;2.50;;
11439;SDS011;5776;51.814;4.510;2023-07-24T02:12:12;2.88;;;2.17;;
11439;SDS011;5776;51.814;4.510;2023-07-24T02:14:38;6.07;;;2.40;;
11439;SDS011;5776;51.814;4.510;2023-07-24T02:17:03;2.95;;;1.92;;
11439;SDS011;5776;51.814;4.510;2023-07-24T02:19:30;3.50;;;2.20;;
11439;SDS011;5776;51.814;4.510;2023-07-24T02:21:58;3.15;;;2.28;;
11439;SDS011;5776;51.814;4.510;2023-07-24T02:24:24;3.65;;;2.17;;
11439;SDS011;5776;51.814;4.510;2023-07-24T02:26:50;4.15;;;2.10;;
11439;SDS011;5776;51.814;4.510;2023-07-24T02:29:17;3.20;;;2.38;;
11439;SDS011;5776;51.814;4.510;2023-07-24T02:31:43;4.05;;;2.15;;
11439;SDS011;5776;51.814;4.510;2023-07-24T02:34:10;3.78;;;2.17;;
11439;SDS011;5776;51.814;4.510;2023-07-24T02:36:36;5.25;;;2.25;;
11439;SDS011;5776;51.814;4.510;2023-07-24T02:39:03;4.72;;;2.22;;
11439;SDS011;5776;51.814;4.510;2023-07-24T02:41:36;4.07;;;2.38;;
11439;SDS011;5776;51.814;4.510;2023-07-24T02:44:02;2.72;;;2.10;;
11439;SDS011;5776;51.814;4.510;2023-07-24T02:46:31;4.22;;;2.10;;
11439;SDS011;5776;51.814;4.510;2023-07-24T02:48:57;3.33;;;2.10;;
11439;SDS011;5776;51.814;4.510;2023-07-24T02:51:23;3.72;;;1.98;;
11439;SDS011;5776;51.814;4.510;2023-07-24T02:53:49;5.10;;;2.42;;
11439;SDS011;5776;51.814;4.510;2023-07-24T02:56:15;4.82;;;2.33;;
11439;SDS011;5776;51.814;4.510;2023-07-24T02:58:41;3.60;;;2.33;;
11439;SDS011;5776;51.814;4.510;2023-07-24T03:01:07;4.57;;;2.50;;
11439;SDS011;5776;51.814;4.510;2023-07-24T03:03:35;4.97;;;2.72;;
11439;SDS011;5776;51.814;4.510;2023-07-24T03:06:01;4.20;;;2.63;;
11439;SDS011;5776;51.814;4.510;2023-07-24T03:08:28;6.82;;;2.50;;
11439;SDS011;5776;51.814;4.510;2023-07-24T03:10:57;3.95;;;2.42;;
11439;SDS011;5776;51.814;4.510;2023-07-24T03:13:23;6.05;;;3.25;;
11439;SDS011;5776;51.814;4.510;2023-07-24T03:15:55;4.88;;;2.33;;
11439;SDS011;5776;51.814;4.510;2023-07-24T03:18:22;4.82;;;2.83;;
11439;SDS011;5776;51.814;4.510;2023-07-24T03:20:49;4.88;;;3.03;;
11439;SDS011;5776;51.814;4.510;2023-07-24T03:23:18;4.82;;;3.28;;
11439;SDS011;5776;51.814;4.510;2023-07-24T03:25:44;6.15;;;2.67;;
11439;SDS011;5776;51.814;4.510;2023-07-24T03:28:10;5.32;;;2.78;;
11439;SDS011;5776;51.814;4.510;2023-07-24T03:30:38;4.18;;;2.67;;
11439;SDS011;5776;51.814;4.510;2023-07-24T03:33:04;4.72;;;2.78;;
11439;SDS011;5776;51.814;4.510;2023-07-24T03:35:30;5.70;;;3.03;;
11439;SDS011;5776;51.814;4.510;2023-07-24T03:37:56;5.15;;;2.85;;
11439;SDS011;5776;51.814;4.510;2023-07-24T03:40:24;4.03;;;3.00;;
11439;SDS011;5776;51.814;4.510;2023-07-24T03:42:51;6.20;;;3.00;;
11439;SDS011;5776;51.814;4.510;2023-07-24T03:45:17;6.65;;;2.88;;
11439;SDS011;5776;51.814;4.510;2023-07-24T03:47:43;6.35;;;2.92;;
11439;SDS011;5776;51.814;4.510;2023-07-24T03:50:11;4.30;;;2.45;;
11439;SDS011;5776;51.814;4.510;2023-07-24T03:52:37;4.70;;;3.00;;
11439;SDS011;5776;51.814;4.510;2023-07-24T03:55:05;7.57;;;3.15;;
11439;SDS011;5776;51.814;4.510;2023-07-24T03:57:31;8.52;;;3.00;;
11439;SDS011;5776;51.814;4.510;2023-07-24T03:59:57;7.72;;;3.25;;
11439;SDS011;5776;51.814;4.510;2023-07-24T04:02:23;8.77;;;3.22;;
11439;SDS011;5776;51.814;4.510;2023-07-24T04:04:49;6.63;;;3.55;;
11439;SDS011;5776;51.814;4.510;2023-07-24T04:07:15;5.40;;;3.20;;
11439;SDS011;5776;51.814;4.510;2023-07-24T04:09:41;5.63;;;3.33;;
11439;SDS011;5776;51.814;4.510;2023-07-24T04:12:07;5.90;;;3.33;;
11439;SDS011;5776;51.814;4.510;2023-07-24T04:14:33;5.75;;;3.20;;
11439;SDS011;5776;51.814;4.510;2023-07-24T04:16:59;6.53;;;3.60;;
11439;SDS011;5776;51.814;4.510;2023-07-24T04:19:30;6.22;;;3.42;;
11439;SDS011;5776;51.814;4.510;2023-07-24T04:21:56;5.75;;;3.80;;
11439;SDS011;5776;51.814;4.510;2023-07-24T04:24:23;7.70;;;3.63;;
11439;SDS011;5776;51.814;4.510;2023-07-24T04:26:49;8.52;;;4.20;;
11439;SDS011;5776;51.814;4.510;2023-07-24T04:29:15;6.22;;;3.72;;
11439;SDS011;5776;51.814;4.510;2023-07-24T04:31:41;6.85;;;3.92;;
11439;SDS011;5776;51.814;4.510;2023-07-24T04:34:07;7.60;;;3.97;;
11439;SDS011;5776;51.814;4.510;2023-07-24T04:36:35;8.23;;;4.07;;
11439;SDS011;5776;51.814;4.510;2023-07-24T04:39:01;8.07;;;3.90;;
11439;SDS011;5776;51.814;4.510;2023-07-24T04:41:28;7.65;;;4.18;;
11439;SDS011;5776;51.814;4.510;2023-07-24T04:43:54;11.80;;;4.25;;
11439;SDS011;5776;51.814;4.510;2023-07-24T04:46:20;9.65;;;4.00;;
11439;SDS011;5776;51.814;4.510;2023-07-24T04:48:47;10.95;;;4.25;;
11439;SDS011;5776;51.814;4.510;2023-07-24T04:51:14;7.68;;;4.05;;
11439;SDS011;5776;51.814;4.510;2023-07-24T04:53:40;6.82;;;3.88;;
11439;SDS011;5776;51.814;4.510;2023-07-24T04:56:07;6.55;;;3.90;;
11439;SDS011;5776;51.814;4.510;2023-07-24T04:58:34;7.05;;;3.95;;
11439;SDS011;5776;51.814;4.510;2023-07-24T05:01:02;8.40;;;4.38;;
11439;SDS011;5776;51.814;4.510;2023-07-24T05:03:31;6.68;;;3.67;;
11439;SDS011;5776;51.814;4.510;2023-07-24T05:06:00;6.03;;;4.10;;
11439;SDS011;5776;51.814;4.510;2023-07-24T05:08:27;6.47;;;3.90;;
11439;SDS011;5776;51.814;4.510;2023-07-24T05:10:53;7.63;;;4.18;;
11439;SDS011;5776;51.814;4.510;2023-07-24T05:13:22;8.68;;;4.80;;
11439;SDS011;5776;51.814;4.510;2023-07-24T05:15:48;10.73;;;4.65;;
11439;SDS011;5776;51.814;4.510;2023-07-24T05:18:14;7.50;;;4.40;;
11439;SDS011;5776;51.814;4.510;2023-07-24T05:20:48;12.68;;;4.38;;
11439;SDS011;5776;51.814;4.510;2023-07-24T05:23:17;6.25;;;3.97;;
11439;SDS011;5776;51.814;4.510;2023-07-24T05:25:42;7.35;;;3.95;;
11439;SDS011;5776;51.814;4.510;2023-07-24T05:28:08;5.75;;;3.42;;
11439;SDS011;5776;51.814;4.510;2023-07-24T05:30:35;7.53;;;4.40;;
11439;SDS011;5776;51.814;4.510;2023-07-24T05:33:04;6.55;;;3.40;;
11439;SDS011;5776;51.814;4.510;2023-07-24T05:35:29;8.70;;;4.00;;
11439;SDS011;5776;51.814;4.510;2023-07-24T05:37:56;8.90;;;3.55;;
11439;SDS011;5776;51.814;4.510;2023-07-24T05:40:23;8.27;;;3.78;;
11439;SDS011;5776;51.814;4.510;2023-07-24T05:42:51;6.45;;;2.75;;
11439;SDS011;5776;51.814;4.510;2023-07-24T05:45:16;6.65;;;3.88;;
11439;SDS011;5776;51.814;4.510;2023-07-24T05:47:42;7.10;;;3.35;;
11439;SDS011;5776;51.814;4.510;2023-07-24T05:50:09;7.47;;;3.80;;
11439;SDS011;5776;51.814;4.510;2023-07-24T05:52:35;6.75;;;3.90;;
11439;SDS011;5776;51.814;4.510;2023-07-24T05:55:01;7.30;;;4.15;;
11439;SDS011;5776;51.814;4.510;2023-07-24T05:57:28;6.85;;;4.10;;
11439;SDS011;5776;51.814;4.510;2023-07-24T05:59:55;6.22;;;4.20;;
11439;SDS011;5776;51.814;4.510;2023-07-24T06:02:21;11.38;;;4.10;;
11439;SDS011;5776;51.814;4.510;2023-07-24T06:04:47;7.15;;;4.05;;
11439;SDS011;5776;51.814;4.510;2023-07-24T06:07:13;10.05;;;4.32;;
11439;SDS011;5776;51.814;4.510;2023-07-24T06:09:39;7.38;;;4.30;;
11439;SDS011;5776;51.814;4.510;2023-07-24T06:12:05;8.75;;;4.13;;
11439;SDS011;5776;51.814;4.510;2023-07-24T06:14:31;8.27;;;4.32;;
11439;SDS011;5776;51.814;4.510;2023-07-24T06:16:57;5.70;;;4.18;;
11439;SDS011;5776;51.814;4.510;2023-07-24T06:19:24;10.30;;;4.53;;
11439;SDS011;5776;51.814;4.510;2023-07-24T06:21:50;8.23;;;4.40;;
11439;SDS011;5776;51.814;4.510;2023-07-24T06:24:16;7.35;;;4.35;;
11439;SDS011;5776;51.814;4.510;2023-07-24T06:26:43;6.82;;;3.80;;
11439;SDS011;5776;51.814;4.510;2023-07-24T06:29:09;10.35;;;3.85;;
11439;SDS011;5776;51.814;4.510;2023-07-24T06:31:35;7.43;;;4.22;;
11439;SDS011;5776;51.814;4.510;2023-07-24T06:34:00;7.35;;;4.45;;
11439;SDS011;5776;51.814;4.510;2023-07-24T06:36:26;8.57;;;4.55;;
11439;SDS011;5776;51.814;4.510;2023-07-24T06:38:52;7.35;;;4.55;;
11439;SDS011;5776;51.814;4.510;2023-07-24T06:41:19;8.45;;;4.80;;
11439;SDS011;5776;51.814;4.510;2023-07-24T06:43:48;8.48;;;5.13;;
11439;SDS011;5776;51.814;4.510;2023-07-24T06:46:14;11.45;;;5.07;;
11439;SDS011;5776;51.814;4.510;2023-07-24T06:48:40;8.52;;;4.63;;
11439;SDS011;5776;51.814;4.510;2023-07-24T06:51:06;6.88;;;4.50;;
11439;SDS011;5776;51.814;4.510;2023-07-24T06:53:33;7.10;;;4.25;;
11439;SDS011;5776;51.814;4.510;2023-07-24T06:56:00;7.68;;;4.53;;
11439;SDS011;5776;51.814;4.510;2023-07-24T06:58:26;8.43;;;5.40;;
11439;SDS011;5776;51.814;4.510;2023-07-24T07:00:52;8.95;;;5.18;;
11439;SDS011;5776;51.814;4.510;2023-07-24T07:03:18;9.02;;;4.80;;
11439;SDS011;5776;51.814;4.510;2023-07-24T07:05:44;6.55;;;4.60;;
11439;SDS011;5776;51.814;4.510;2023-07-24T07:08:09;7.25;;;4.55;;
11439;SDS011;5776;51.814;4.510;2023-07-24T07:10:36;11.45;;;5.22;;
11439;SDS011;5776;51.814;4.510;2023-07-24T07:13:02;9.90;;;5.18;;
11439;SDS011;5776;51.814;4.510;2023-07-24T07:15:28;10.15;;;4.80;;
11439;SDS011;5776;51.814;4.510;2023-07-24T07:17:55;7.93;;;4.63;;
11439;SDS011;5776;51.814;4.510;2023-07-24T07:20:21;9.27;;;5.25;;
11439;SDS011;5776;51.814;4.510;2023-07-24T07:22:47;10.10;;;5.35;;
11439;SDS011;5776;51.814;4.510;2023-07-24T07:25:14;6.28;;;4.97;;
11439;SDS011;5776;51.814;4.510;2023-07-24T07:27:39;10.07;;;5.22;;
11439;SDS011;5776;51.814;4.510;2023-07-24T07:30:05;6.40;;;4.57;;
11439;SDS011;5776;51.814;4.510;2023-07-24T07:32:32;7.18;;;5.05;;
11439;SDS011;5776;51.814;4.510;2023-07-24T07:34:59;7.32;;;5.00;;
11439;SDS011;5776;51.814;4.510;2023-07-24T07:37:25;9.45;;;5.82;;
11439;SDS011;5776;51.814;4.510;2023-07-24T07:39:51;8.25;;;5.88;;
11439;SDS011;5776;51.814;4.510;2023-07-24T07:42:18;10.30;;;6.10;;
11439;SDS011;5776;51.814;4.510;2023-07-24T07:44:47;8.18;;;5.78;;
11439;SDS011;5776;51.814;4.510;2023-07-24T07:47:14;7.80;;;5.25;;
11439;SDS011;5776;51.814;4.510;2023-07-24T07:49:40;8.85;;;6.03;;
11439;SDS011;5776;51.814;4.510;2023-07-24T07:52:07;8.20;;;4.90;;
11439;SDS011;5776;51.814;4.510;2023-07-24T07:54:33;12.32;;;5.30;;
11439;SDS011;5776;51.814;4.510;2023-07-24T07:56:58;7.43;;;4.80;;
11439;SDS011;5776;51.814;4.510;2023-07-24T07:59:24;11.85;;;4.97;;
11439;SDS011;5776;51.814;4.510;2023-07-24T08:01:51;7.68;;;4.53;;
11439;SDS011;5776;51.814;4.510;2023-07-24T08:04:18;9.65;;;4.55;;
11439;SDS011;5776;51.814;4.510;2023-07-24T08:06:43;8.57;;;4.57;;
11439;SDS011;5776;51.814;4.510;2023-07-24T08:09:09;7.10;;;4.15;;
11439;SDS011;5776;51.814;4.510;2023-07-24T08:11:35;6.32;;;4.00;;
11439;SDS011;5776;51.814;4.510;2023-07-24T08:14:01;12.15;;;4.40;;
11439;SDS011;5776;51.814;4.510;2023-07-24T08:16:26;9.93;;;4.15;;
11439;SDS011;5776;51.814;4.510;2023-07-24T08:18:51;8.18;;;3.78;;
11439;SDS011;5776;51.814;4.510;2023-07-24T08:21:17;10.23;;;4.15;;
11439;SDS011;5776;51.814;4.510;2023-07-24T08:23:42;5.22;;;3.30;;
11439;SDS011;5776;51.814;4.510;2023-07-24T08:26:08;10.65;;;3.97;;
11439;SDS011;5776;51.814;4.510;2023-07-24T08:28:34;7.30;;;3.80;;
11439;SDS011;5776;51.814;4.510;2023-07-24T08:31:00;6.78;;;3.65;;
11439;SDS011;5776;51.814;4.510;2023-07-24T08:33:27;9.82;;;4.38;;
11439;SDS011;5776;51.814;4.510;2023-07-24T08:36:14;8.32;;;4.43;;
11439;SDS011;5776;51.814;4.510;2023-07-24T08:38:39;6.57;;;3.42;;
11439;SDS011;5776;51.814;4.510;2023-07-24T08:41:10;10.07;;;4.45;;
11439;SDS011;5776;51.814;4.510;2023-07-24T08:43:37;8.07;;;4.80;;
11439;SDS011;5776;51.814;4.510;2023-07-24T08:46:04;7.57;;;4.40;;
11439;SDS011;5776;51.814;4.510;2023-07-24T08:48:35;5.20;;;3.88;;
11439;SDS011;5776;51.814;4.510;2023-07-24T08:51:02;7.75;;;4.30;;
11439;SDS011;5776;51.814;4.510;2023-07-24T08:53:28;8.23;;;4.35;;
11439;SDS011;5776;51.814;4.510;2023-07-24T08:55:55;7.22;;;4.10;;
11439;SDS011;5776;51.814;4.510;2023-07-24T08:58:21;6.40;;;3.83;;
11439;SDS011;5776;51.814;4.510;2023-07-24T09:00:47;7.13;;;3.83;;
11439;SDS011;5776;51.814;4.510;2023-07-24T09:03:12;6.13;;;4.00;;
11439;SDS011;5776;51.814;4.510;2023-07-24T09:05:38;7.93;;;3.90;;
11439;SDS011;5776;51.814;4.510;2023-07-24T09:08:03;6.22;;;3.40;;
11439;SDS011;5776;51.814;4.510;2023-07-24T09:10:29;7.72;;;3.92;;
11439;SDS011;5776;51.814;4.510;2023-07-24T09:12:54;5.55;;;2.80;;
11439;SDS011;5776;51.814;4.510;2023-07-24T09:15:20;6.45;;;3.63;;
11439;SDS011;5776;51.814;4.510;2023-07-24T09:17:50;8.77;;;3.90;;
11439;SDS011;5776;51.814;4.510;2023-07-24T09:20:16;7.88;;;3.30;;
11439;SDS011;5776;51.814;4.510;2023-07-24T09:22:51;5.13;;;3.45;;
11439;SDS011;5776;51.814;4.510;2023-07-24T09:25:18;5.70;;;4.00;;
11439;SDS011;5776;51.814;4.510;2023-07-24T09:27:54;8.68;;;4.47;;
11439;SDS011;5776;51.814;4.510;2023-07-24T09:30:20;6.15;;;3.85;;
11439;SDS011;5776;51.814;4.510;2023-07-24T09:32:51;9.00;;;4.50;;
11439;SDS011;5776;51.814;4.510;2023-07-24T09:35:20;9.75;;;4.47;;
11439;SDS011;5776;51.814;4.510;2023-07-24T09:38:00;8.88;;;3.78;;
11439;SDS011;5776;51.814;4.510;2023-07-24T09:40:41;8.23;;;3.72;;
11439;SDS011;5776;51.814;4.510;2023-07-24T09:43:18;6.72;;;3.92;;
11439;SDS011;5776;51.814;4.510;2023-07-24T09:45:45;5.93;;;3.92;;
11439;SDS011;5776;51.814;4.510;2023-07-24T09:48:13;8.88;;;3.75;;
11439;SDS011;5776;51.814;4.510;2023-07-24T09:50:43;6.55;;;3.35;;
11439;SDS011;5776;51.814;4.510;2023-07-24T09:55:57;6.85;;;3.97;;
11439;SDS011;5776;51.814;4.510;2023-07-24T09:58:24;8.88;;;4.20;;
11439;SDS011;5776;51.814;4.510;2023-07-24T10:00:51;7.10;;;3.80;;
11439;SDS011;5776;51.814;4.510;2023-07-24T10:03:18;6.50;;;3.78;;
11439;SDS011;5776;51.814;4.510;2023-07-24T10:05:45;6.78;;;3.60;;
11439;SDS011;5776;51.814;4.510;2023-07-24T10:08:11;4.80;;;3.15;;
11439;SDS011;5776;51.814;4.510;2023-07-24T10:10:38;5.10;;;3.28;;
11439;SDS011;5776;51.814;4.510;2023-07-24T10:13:06;7.95;;;3.97;;
11439;SDS011;5776;51.814;4.510;2023-07-24T10:15:36;7.13;;;4.28;;
11439;SDS011;5776;51.814;4.510;2023-07-24T10:18:03;9.38;;;4.10;;
11439;SDS011;5776;51.814;4.510;2023-07-24T10:20:40;7.22;;;3.60;;
11439;SDS011;5776;51.814;4.510;2023-07-24T10:23:09;4.68;;;4.10;;
11439;SDS011;5776;51.814;4.510;2023-07-24T10:25:38;6.93;;;3.20;;
11439;SDS011;5776;51.814;4.510;2023-07-24T10:28:09;6.20;;;3.95;;
11439;SDS011;5776;51.814;4.510;2023-07-24T10:30:37;8.40;;;3.75;;
11439;SDS011;5776;51.814;4.510;2023-07-24T10:33:05;6.78;;;3.58;;
11439;SDS011;5776;51.814;4.510;2023-07-24T10:35:41;4.93;;;3.50;;
11439;SDS011;5776;51.814;4.510;2023-07-24T10:38:10;6.65;;;3.83;;
11439;SDS011;5776;51.814;4.510;2023-07-24T10:40:38;7.20;;;4.00;;
11439;SDS011;5776;51.814;4.510;2023-07-24T10:43:06;6.35;;;3.70;;
11439;SDS011;5776;51.814;4.510;2023-07-24T10:45:39;9.43;;;4.65;;
11439;SDS011;5776;51.814;4.510;2023-07-24T10:48:06;7.97;;;4.45;;
11439;SDS011;5776;51.814;4.510;2023-07-24T10:50:43;6.88;;;4.72;;
11439;SDS011;5776;51.814;4.510;2023-07-24T10:53:10;6.65;;;4.40;;
11439;SDS011;5776;51.814;4.510;2023-07-24T10:55:38;8.30;;;4.53;;
11439;SDS011;5776;51.814;4.510;2023-07-24T10:58:05;6.38;;;4.28;;
11439;SDS011;5776;51.814;4.510;2023-07-24T11:00:32;7.85;;;4.57;;
11439;SDS011;5776;51.814;4.510;2023-07-24T11:02:58;10.73;;;5.00;;
11439;SDS011;5776;51.814;4.510;2023-07-24T11:05:24;7.10;;;4.97;;
11439;SDS011;5776;51.814;4.510;2023-07-24T11:07:49;6.32;;;4.20;;
11439;SDS011;5776;51.814;4.510;2023-07-24T11:10:16;7.72;;;4.30;;
11439;SDS011;5776;51.814;4.510;2023-07-24T11:12:42;7.78;;;4.63;;
11439;SDS011;5776;51.814;4.510;2023-07-24T11:15:08;6.72;;;4.63;;
11439;SDS011;5776;51.814;4.510;2023-07-24T11:17:37;8.55;;;3.75;;
11439;SDS011;5776;51.814;4.510;2023-07-24T11:20:14;5.63;;;3.40;;
11439;SDS011;5776;51.814;4.510;2023-07-24T11:22:42;6.22;;;3.40;;
11439;SDS011;5776;51.814;4.510;2023-07-24T11:25:11;4.60;;;3.30;;
11439;SDS011;5776;51.814;4.510;2023-07-24T11:27:39;6.28;;;3.28;;
11439;SDS011;5776;51.814;4.510;2023-07-24T11:30:09;4.00;;;3.13;;
11439;SDS011;5776;51.814;4.510;2023-07-24T11:32:37;4.82;;;2.53;;
11439;SDS011;5776;51.814;4.510;2023-07-24T11:35:04;6.95;;;3.20;;
11439;SDS011;5776;51.814;4.510;2023-07-24T11:37:30;6.93;;;3.20;;
11439;SDS011;5776;51.814;4.510;2023-07-24T11:40:01;4.07;;;2.80;;
11439;SDS011;5776;51.814;4.510;2023-07-24T11:42:38;4.95;;;2.88;;
11439;SDS011;5776;51.814;4.510;2023-07-24T11:45:05;8.20;;;2.97;;
11439;SDS011;5776;51.814;4.510;2023-07-24T11:47:40;8.48;;;2.85;;
11439;SDS011;5776;51.814;4.510;2023-07-24T11:50:16;6.00;;;2.90;;
11439;SDS011;5776;51.814;4.510;2023-07-24T11:52:45;5.85;;;2.95;;
11439;SDS011;5776;51.814;4.510;2023-07-24T11:55:13;6.30;;;3.20;;
11439;SDS011;5776;51.814;4.510;2023-07-24T11:57:56;6.25;;;2.72;;
11439;SDS011;5776;51.814;4.510;2023-07-24T12:00:22;4.53;;;2.38;;
11439;SDS011;5776;51.814;4.510;2023-07-24T12:02:48;8.20;;;3.50;;
11439;SDS011;5776;51.814;4.510;2023-07-24T12:05:15;6.95;;;3.15;;
11439;SDS011;5776;51.814;4.510;2023-07-24T12:07:41;5.93;;;3.20;;
11439;SDS011;5776;51.814;4.510;2023-07-24T12:10:08;6.05;;;2.90;;
11439;SDS011;5776;51.814;4.510;2023-07-24T12:12:42;4.28;;;2.72;;
11439;SDS011;5776;51.814;4.510;2023-07-24T12:15:09;6.60;;;3.15;;
11439;SDS011;5776;51.814;4.510;2023-07-24T12:17:36;5.65;;;3.33;;
11439;SDS011;5776;51.814;4.510;2023-07-24T12:20:03;4.88;;;2.90;;
11439;SDS011;5776;51.814;4.510;2023-07-24T12:22:31;7.13;;;3.10;;
11439;SDS011;5776;51.814;4.510;2023-07-24T12:24:57;5.75;;;3.55;;
11439;SDS011;5776;51.814;4.510;2023-07-24T12:27:23;5.43;;;3.03;;
11439;SDS011;5776;51.814;4.510;2023-07-24T12:29:49;7.45;;;2.88;;
11439;SDS011;5776;51.814;4.510;2023-07-24T12:32:16;7.45;;;3.25;;
11439;SDS011;5776;51.814;4.510;2023-07-24T12:34:42;4.47;;;3.22;;
11439;SDS011;5776;51.814;4.510;2023-07-24T12:37:08;6.50;;;3.03;;
11439;SDS011;5776;51.814;4.510;2023-07-24T12:39:34;5.03;;;3.10;;
11439;SDS011;5776;51.814;4.510;2023-07-24T12:41:59;5.13;;;3.10;;
11439;SDS011;5776;51.814;4.510;2023-07-24T12:44:25;4.85;;;2.60;;
11439;SDS011;5776;51.814;4.510;2023-07-24T12:46:51;4.25;;;2.70;;
11439;SDS011;5776;51.814;4.510;2023-07-24T12:49:16;4.88;;;2.95;;
11439;SDS011;5776;51.814;4.510;2023-07-24T12:51:42;3.60;;;2.70;;
11439;SDS011;5776;51.814;4.510;2023-07-24T12:54:08;6.18;;;3.13;;
11439;SDS011;5776;51.814;4.510;2023-07-24T12:56:34;5.97;;;3.35;;
11439;SDS011;5776;51.814;4.510;2023-07-24T12:58:59;4.15;;;2.78;;
11439;SDS011;5776;51.814;4.510;2023-07-24T13:01:26;6.95;;;3.60;;
11439;SDS011;5776;51.814;4.510;2023-07-24T13:03:53;6.57;;;3.33;;
11439;SDS011;5776;51.814;4.510;2023-07-24T13:06:19;5.55;;;4.15;;
11439;SDS011;5776;51.814;4.510;2023-07-24T13:08:45;10.48;;;4.38;;
11439;SDS011;5776;51.814;4.510;2023-07-24T13:11:10;6.13;;;3.00;;
11439;SDS011;5776;51.814;4.510;2023-07-24T13:13:37;4.65;;;2.72;;
11439;SDS011;5776;51.814;4.510;2023-07-24T13:16:04;3.70;;;2.67;;
11439;SDS011;5776;51.814;4.510;2023-07-24T13:18:29;4.93;;;3.08;;
11439;SDS011;5776;51.814;4.510;2023-07-24T13:20:55;5.88;;;3.60;;
11439;SDS011;5776;51.814;4.510;2023-07-24T13:23:21;4.72;;;3.00;;
11439;SDS011;5776;51.814;4.510;2023-07-24T13:25:46;6.10;;;3.13;;
11439;SDS011;5776;51.814;4.510;2023-07-24T13:28:12;8.70;;;3.63;;
11439;SDS011;5776;51.814;4.510;2023-07-24T13:30:39;6.32;;;3.45;;
11439;SDS011;5776;51.814;4.510;2023-07-24T13:33:05;7.05;;;3.95;;
11439;SDS011;5776;51.814;4.510;2023-07-24T13:35:31;3.40;;;2.60;;
11439;SDS011;5776;51.814;4.510;2023-07-24T13:37:57;2.45;;;1.10;;
11439;SDS011;5776;51.814;4.510;2023-07-24T13:40:23;4.35;;;1.35;;
11439;SDS011;5776;51.814;4.510;2023-07-24T13:42:49;3.50;;;1.52;;
11439;SDS011;5776;51.814;4.510;2023-07-24T13:45:15;3.90;;;1.77;;
11439;SDS011;5776;51.814;4.510;2023-07-24T13:47:41;5.07;;;1.38;;
11439;SDS011;5776;51.814;4.510;2023-07-24T13:50:08;2.78;;;1.10;;
11439;SDS011;5776;51.814;4.510;2023-07-24T13:52:34;2.90;;;1.40;;
11439;SDS011;5776;51.814;4.510;2023-07-24T13:55:00;2.10;;;0.90;;
11439;SDS011;5776;51.814;4.510;2023-07-24T13:57:26;2.05;;;1.13;;
11439;SDS011;5776;51.814;4.510;2023-07-24T13:59:52;3.20;;;1.40;;
11439;SDS011;5776;51.814;4.510;2023-07-24T14:02:18;3.67;;;1.17;;
11439;SDS011;5776;51.814;4.510;2023-07-24T14:04:44;4.20;;;1.38;;
11439;SDS011;5776;51.814;4.510;2023-07-24T14:07:10;2.72;;;1.17;;
11439;SDS011;5776;51.814;4.510;2023-07-24T14:09:38;4.47;;;1.60;;
11439;SDS011;5776;51.814;4.510;2023-07-24T14:12:04;3.65;;;1.23;;
11439;SDS011;5776;51.814;4.510;2023-07-24T14:14:30;3.60;;;1.10;;
11439;SDS011;5776;51.814;4.510;2023-07-24T14:16:56;2.60;;;1.05;;
11439;SDS011;5776;51.814;4.510;2023-07-24T14:19:22;5.45;;;1.27;;
11439;SDS011;5776;51.814;4.510;2023-07-24T14:21:49;5.28;;;1.38;;
11439;SDS011;5776;51.814;4.510;2023-07-24T14:24:16;2.15;;;1.10;;
11439;SDS011;5776;51.814;4.510;2023-07-24T14:26:41;3.33;;;1.15;;
11439;SDS011;5776;51.814;4.510;2023-07-24T14:29:07;3.38;;;1.25;;
11439;SDS011;5776;51.814;4.510;2023-07-24T14:31:33;3.83;;;1.38;;
11439;SDS011;5776;51.814;4.510;2023-07-24T14:33:59;5.30;;;1.17;;
11439;SDS011;5776;51.814;4.510;2023-07-24T14:36:24;5.00;;;1.45;;
11439;SDS011;5776;51.814;4.510;2023-07-24T14:38:50;4.75;;;1.55;;
11439;SDS011;5776;51.814;4.510;2023-07-24T14:41:16;4.65;;;1.40;;
11439;SDS011;5776;51.814;4.510;2023-07-24T14:43:42;5.38;;;1.90;;
11439;SDS011;5776;51.814;4.510;2023-07-24T14:46:08;6.53;;;1.08;;
11439;SDS011;5776;51.814;4.510;2023-07-24T14:48:34;4.25;;;1.23;;
11439;SDS011;5776;51.814;4.510;2023-07-24T14:51:00;4.22;;;1.20;;
11439;SDS011;5776;51.814;4.510;2023-07-24T14:53:25;6.72;;;1.48;;
11439;SDS011;5776;51.814;4.510;2023-07-24T14:55:51;5.68;;;1.15;;
11439;SDS011;5776;51.814;4.510;2023-07-24T14:58:17;5.57;;;1.05;;
11439;SDS011;5776;51.814;4.510;2023-07-24T15:00:43;3.03;;;1.02;;
11439;SDS011;5776;51.814;4.510;2023-07-24T15:03:10;2.30;;;0.90;;
11439;SDS011;5776;51.814;4.510;2023-07-24T15:05:36;2.80;;;0.70;;
11439;SDS011;5776;51.814;4.510;2023-07-24T15:08:02;1.35;;;0.88;;